Time;durP1;ratioP1;P1;durP2;ratioP2;P2;SDS_P1;SDS_P2;PMS_P1;PMS_P2;Temp;Humidity;BMP_temperature;BMP_pressure;BME280_temperature;BME280_humidity;BME280_pressure;Samples;Min_cycle;Max_cycle;Signal;HPM_P1;HPM_P2
2021/10/30 00:02:25;;;;;;;38.38;24.27;;;;;;;6.30;100.00;100254.51;1736055;81;20919;-69
2021/10/30 00:04:52;;;;;;;48.98;31.62;;;;;;;6.29;100.00;100257.08;1739166;81;20931;-69
2021/10/30 00:07:20;;;;;;;54.15;29.82;;;;;;;6.27;100.00;100255.73;1749960;81;20919;-69
2021/10/30 00:09:49;;;;;;;59.63;29.20;;;;;;;6.26;100.00;100261.81;1755815;81;20923;-69
2021/10/30 00:12:18;;;;;;;48.20;26.07;;;;;;;6.26;100.00;100252.64;1762091;81;22013;-69
2021/10/30 00:14:48;;;;;;;38.13;23.83;;;;;;;6.30;100.00;100259.75;1768596;80;21444;-69
2021/10/30 00:17:16;;;;;;;38.73;24.50;;;;;;;6.31;100.00;100259.33;1764517;80;20964;-69
2021/10/30 00:19:44;;;;;;;40.63;24.85;;;;;;;6.29;100.00;100259.28;1765552;80;21459;-67
2021/10/30 00:22:16;;;;;;;37.63;24.32;;;;;;;6.30;100.00;100264.09;1767315;81;21354;-67
2021/10/30 00:24:44;;;;;;;37.90;24.67;;;;;;;6.30;100.00;100258.44;1751619;80;21082;-69
2021/10/30 00:27:13;;;;;;;43.42;26.12;;;;;;;6.29;100.00;100255.34;1770011;81;20955;-68
2021/10/30 00:29:40;;;;;;;38.23;24.35;;;;;;;6.26;100.00;100261.81;1754098;80;21399;-68
2021/10/30 00:32:08;;;;;;;34.40;23.50;;;;;;;6.22;100.00;100259.06;1770258;80;20998;-68
2021/10/30 00:34:37;;;;;;;36.28;23.40;;;;;;;6.19;100.00;100257.24;1753616;80;21470;-68
2021/10/30 00:37:05;;;;;;;39.27;26.27;;;;;;;6.18;100.00;100250.23;1810742;78;21095;-68
2021/10/30 00:39:33;;;;;;;51.33;31.50;;;;;;;6.15;100.00;100257.08;1816462;78;21426;-68
2021/10/30 00:42:01;;;;;;;50.20;32.45;;;;;;;6.11;100.00;100258.72;1820680;78;20975;-69
2021/10/30 00:44:29;;;;;;;49.10;30.08;;;;;;;6.08;100.00;100256.02;1793354;79;21034;-68
2021/10/30 00:46:57;;;;;;;60.98;28.67;;;;;;;6.05;100.00;100249.80;1749949;81;21044;-68
2021/10/30 00:49:27;;;;;;;42.30;26.97;;;;;;;6.00;100.00;100249.23;1752474;80;21079;-68
2021/10/30 00:51:56;;;;;;;39.88;25.80;;;;;;;5.97;100.00;100251.77;1751337;80;21414;-68
2021/10/30 00:54:25;;;;;;;35.45;23.30;;;;;;;5.95;100.00;100256.49;1770689;81;21477;-68
2021/10/30 00:56:57;;;;;;;34.83;24.07;;;;;;;5.93;100.00;100251.20;1745626;80;20991;-68
2021/10/30 00:59:26;;;;;;;38.10;24.72;;;;;;;5.92;100.00;100253.78;1748419;81;21401;-68
2021/10/30 01:01:54;;;;;;;38.98;24.37;;;;;;;5.89;100.00;100245.80;1780689;78;21102;-68
2021/10/30 01:04:23;;;;;;;39.83;23.73;;;;;;;5.86;100.00;100250.95;1783179;79;20884;-68
2021/10/30 01:06:52;;;;;;;34.18;22.32;;;;;;;5.82;100.00;100247.77;1782995;79;21399;-69
2021/10/30 01:09:23;;;;;;;31.05;22.07;;;;;;;5.79;100.00;100252.91;1790120;79;21399;-68
2021/10/30 01:11:52;;;;;;;32.17;21.82;;;;;;;5.77;100.00;100241.08;1763487;81;20959;-69
2021/10/30 01:14:20;;;;;;;30.52;21.05;;;;;;;5.75;100.00;100239.27;1746804;81;21131;-70
2021/10/30 01:16:58;;;;;;;38.10;23.10;;;;;;;5.74;100.00;100242.30;1719873;82;21388;-69
2021/10/30 01:19:31;;;;;;;31.33;20.62;;;;;;;5.74;100.00;100242.30;1742958;81;20931;-66
2021/10/30 01:21:58;;;;;;;30.30;20.68;;;;;;;5.72;100.00;100243.98;1753112;81;21454;-69
2021/10/30 01:24:26;;;;;;;38.35;24.30;;;;;;;5.67;100.00;100238.58;1735572;82;21676;-70
2021/10/30 01:26:55;;;;;;;36.42;23.77;;;;;;;5.65;100.00;100242.88;1713682;82;21910;-70
2021/10/30 01:29:23;;;;;;;34.88;22.95;;;;;;;5.63;100.00;100235.81;1754035;80;21468;-69
2021/10/30 01:31:53;;;;;;;35.88;22.55;;;;;;;5.59;100.00;100232.22;1726106;82;21469;-69
2021/10/30 01:34:25;;;;;;;32.75;20.60;;;;;;;5.57;100.00;100231.28;1729418;83;20963;-69
2021/10/30 01:37:23;;;;;;;33.28;20.82;;;;;;;5.59;100.00;100235.25;1729548;83;20947;-69
2021/10/30 01:39:51;;;;;;;31.62;20.95;;;;;;;5.56;100.00;100234.73;1719375;82;21127;-69
2021/10/30 01:42:20;;;;;;;34.35;21.20;;;;;;;5.52;100.00;100235.48;1733348;82;21480;-69
2021/10/30 01:44:47;;;;;;;41.85;22.55;;;;;;;5.48;100.00;100240.16;1710201;82;20952;-69
2021/10/30 01:47:15;;;;;;;36.50;21.82;;;;;;;5.47;100.00;100238.38;1740494;82;20952;-69
2021/10/30 01:49:43;;;;;;;33.28;22.77;;;;;;;5.45;100.00;100240.06;1710264;82;20926;-69
2021/10/30 01:52:11;;;;;;;34.78;23.42;;;;;;;5.42;100.00;100240.38;1729095;82;21166;-69
2021/10/30 01:54:41;;;;;;;31.48;22.85;;;;;;;5.36;100.00;100235.42;1718308;81;21467;-70
2021/10/30 01:57:10;;;;;;;33.63;24.12;;;;;;;5.33;100.00;100239.67;1721532;81;21029;-70
2021/10/30 01:59:38;;;;;;;40.70;25.10;;;;;;;5.33;100.00;100237.05;1748443;81;21035;-68
2021/10/30 02:02:06;;;;;;;39.30;24.02;;;;;;;5.31;100.00;100237.00;1732214;81;21522;-67
2021/10/30 02:04:34;;;;;;;37.75;23.42;;;;;;;5.31;100.00;100243.97;1751698;81;21071;-69
2021/10/30 02:07:03;;;;;;;38.30;25.15;;;;;;;5.29;100.00;100237.80;1724504;81;20920;-69
2021/10/30 02:09:30;;;;;;;34.95;23.05;;;;;;;5.29;100.00;100246.53;1706907;83;20969;-69
2021/10/30 02:11:59;;;;;;;35.45;24.80;;;;;;;5.28;100.00;100243.45;1737812;81;21418;-70
2021/10/30 02:14:30;;;;;;;42.13;26.75;;;;;;;5.28;100.00;100242.56;1746644;81;21011;-70
2021/10/30 02:16:56;;;;;;;45.88;28.77;;;;;;;5.26;100.00;100243.82;1755438;80;21091;-70
2021/10/30 02:19:24;;;;;;;50.35;28.83;;;;;;;5.25;100.00;100246.38;1758934;81;20876;-68
2021/10/30 02:21:54;;;;;;;46.08;29.65;;;;;;;5.23;100.00;100247.64;1753834;80;21446;-69
2021/10/30 02:24:23;;;;;;;47.05;29.70;;;;;;;5.22;100.00;100249.79;1757326;80;21442;-70
2021/10/30 02:26:50;;;;;;;43.40;27.40;;;;;;;5.24;100.00;100251.15;1769970;80;20967;-70
2021/10/30 02:29:18;;;;;;;40.58;26.65;;;;;;;5.25;100.00;100250.31;1759392;81;21119;-68
2021/10/30 02:31:46;;;;;;;40.70;26.90;;;;;;;5.23;100.00;100252.88;1764158;81;20907;-68
2021/10/30 02:34:14;;;;;;;40.83;26.42;;;;;;;5.23;100.00;100251.56;1751358;80;20960;-68
2021/10/30 02:36:42;;;;;;;41.80;27.15;;;;;;;5.22;100.00;100258.06;1751085;81;21483;-68
2021/10/30 02:39:11;;;;;;;41.00;26.07;;;;;;;5.18;100.00;100258.34;1761382;81;20978;-68
2021/10/30 02:41:39;;;;;;;41.35;26.35;;;;;;;5.15;100.00;100258.23;1758862;81;21123;-68
2021/10/30 02:44:07;;;;;;;43.98;26.20;;;;;;;5.16;100.00;100259.13;1761479;81;21363;-68
2021/10/30 02:46:36;;;;;;;42.38;26.02;;;;;;;5.17;100.00;100264.83;1765957;81;21374;-68
2021/10/30 02:49:04;;;;;;;41.73;27.42;;;;;;;5.18;100.00;100275.77;1750505;80;20967;-68
2021/10/30 02:51:33;;;;;;;41.08;26.27;;;;;;;5.14;100.00;100274.77;1745513;81;20878;-68
2021/10/30 02:54:03;;;;;;;43.52;26.25;;;;;;;5.14;100.00;100276.50;1757315;81;21406;-66
2021/10/30 02:56:32;;;;;;;42.50;26.10;;;;;;;5.11;100.00;100281.20;1769821;81;20899;-65
2021/10/30 02:59:00;;;;;;;38.05;26.15;;;;;;;5.04;100.00;100276.19;1762423;81;20951;-66
2021/10/30 03:01:28;;;;;;;41.28;27.07;;;;;;;5.01;100.00;100276.09;1758102;79;20923;-67
2021/10/30 03:03:56;;;;;;;40.70;25.85;;;;;;;4.97;100.00;100271.59;1771763;80;20941;-67
2021/10/30 03:06:25;;;;;;;41.48;25.70;;;;;;;4.94;100.00;100278.03;1759450;81;20989;-68
2021/10/30 03:08:54;;;;;;;40.55;27.32;;;;;;;4.92;100.00;100278.81;1762067;81;20856;-69
2021/10/30 03:11:22;;;;;;;39.05;24.87;;;;;;;4.91;100.00;100282.27;1766028;79;20887;-69
2021/10/30 03:13:50;;;;;;;39.48;25.55;;;;;;;4.91;100.00;100288.37;1744934;80;21029;-68
2021/10/30 03:16:18;;;;;;;40.48;26.55;;;;;;;4.90;100.00;100289.63;1744820;81;21474;-69
2021/10/30 03:18:46;;;;;;;41.18;27.13;;;;;;;4.86;100.00;100289.06;1760154;80;21174;-69
2021/10/30 03:21:13;;;;;;;43.28;27.02;;;;;;;4.84;100.00;100292.92;1752414;80;20943;-69
2021/10/30 03:23:42;;;;;;;42.90;27.45;;;;;;;4.84;100.00;100292.92;1767174;80;21416;-70
2021/10/30 03:26:10;;;;;;;40.08;27.20;;;;;;;4.82;100.00;100293.71;1766819;80;20990;-68
2021/10/30 03:28:38;;;;;;;39.75;26.50;;;;;;;4.78;100.00;100287.91;1733948;80;21463;-69
2021/10/30 03:31:05;;;;;;;42.65;27.22;;;;;;;4.72;100.00;100292.05;1767485;80;21128;-69
2021/10/30 03:33:35;;;;;;;44.48;28.23;;;;;;;4.70;100.00;100292.83;1764580;80;21485;-67
2021/10/30 03:36:04;;;;;;;43.55;27.17;;;;;;;4.66;100.00;100293.14;1754451;81;21433;-68
2021/10/30 03:38:31;;;;;;;41.28;26.35;;;;;;;4.63;100.00;100288.22;1773175;79;20967;-67
2021/10/30 03:40:59;;;;;;;39.33;25.77;;;;;;;4.62;100.00;100295.59;1751819;81;21472;-68
2021/10/30 03:43:28;;;;;;;43.83;28.57;;;;;;;4.59;100.00;100299.40;1766490;80;21417;-69
2021/10/30 03:45:57;;;;;;;41.33;27.15;;;;;;;4.59;100.00;100298.98;1760567;80;20955;-68
2021/10/30 03:48:26;;;;;;;51.33;29.70;;;;;;;4.61;100.00;100299.92;1750572;81;21485;-68
2021/10/30 03:50:54;;;;;;;42.62;27.82;;;;;;;4.65;100.00;100299.20;1788355;79;20867;-68
2021/10/30 03:53:21;;;;;;;54.93;29.05;;;;;;;4.67;100.00;100305.37;1752733;80;20954;-68
2021/10/30 03:55:50;;;;;;;46.28;27.00;;;;;;;4.70;100.00;100303.28;1768040;80;21136;-69
2021/10/30 03:58:18;;;;;;;49.25;31.15;;;;;;;4.72;100.00;100303.81;1768395;80;21002;-70
2021/10/30 04:00:46;;;;;;;57.67;28.25;;;;;;;4.70;100.00;100302.86;1757607;80;21639;-67
2021/10/30 04:03:14;;;;;;;45.15;25.95;;;;;;;4.67;100.00;100301.45;1762801;81;21407;-68
2021/10/30 04:05:44;;;;;;;36.60;25.92;;;;;;;4.62;100.00;100302.13;1750830;82;21371;-68
2021/10/30 04:08:18;;;;;;;43.83;27.67;;;;;;;4.55;100.00;100305.34;1763748;81;21697;-67
2021/10/30 04:10:42;;;;;;;62.20;29.82;;;;;;;4.47;100.00;100305.48;1757223;80;20936;-68
2021/10/30 04:13:11;;;;;;;44.73;28.57;;;;;;;4.37;100.00;100307.77;1763369;81;21450;-68
2021/10/30 04:15:40;;;;;;;47.83;24.20;;;;;;;4.31;100.00;100312.77;1750638;80;20975;-68
2021/10/30 04:18:09;;;;;;;60.88;25.85;;;;;;;4.29;100.00;100320.95;1811788;79;20840;-65
2021/10/30 04:20:36;;;;;;;45.98;21.55;;;;;;;4.24;100.00;100322.47;1810295;78;21139;-68
2021/10/30 04:23:04;;;;;;;37.63;23.00;;;;;;;4.15;100.00;100323.44;1762939;80;20923;-68
2021/10/30 04:25:31;;;;;;;36.48;21.50;;;;;;;4.04;100.00;100325.64;1740499;81;21430;-66
2021/10/30 04:27:59;;;;;;;33.38;20.80;;;;;;;3.94;100.00;100321.30;1731283;81;20948;-68
2021/10/30 04:30:27;;;;;;;35.52;20.88;;;;;;;3.87;100.00;100319.29;1749225;81;20884;-69
2021/10/30 04:32:55;;;;;;;33.95;20.57;;;;;;;3.78;100.00;100319.41;1760890;81;21413;-68
2021/10/30 04:35:23;;;;;;;37.55;19.65;;;;;;;3.74;100.00;100328.33;1732331;81;21055;-68
2021/10/30 04:37:52;;;;;;;30.23;19.77;;;;;;;3.70;100.00;100323.81;1730688;82;20915;-67
2021/10/30 04:40:20;;;;;;;32.10;19.32;;;;;;;3.66;100.00;100325.41;1731077;81;21549;-67
2021/10/30 04:42:48;;;;;;;29.57;18.65;;;;;;;3.62;100.00;100334.36;1751903;81;20852;-67
2021/10/30 04:45:16;;;;;;;33.08;19.02;;;;;;;3.60;100.00;100336.02;1750340;80;23876;-68
2021/10/30 04:47:46;;;;;;;31.33;19.32;;;;;;;3.58;100.00;100340.28;1750816;81;21411;-65
2021/10/30 04:50:14;;;;;;;32.33;18.57;;;;;;;3.56;100.00;100337.61;1763516;81;20941;-66
2021/10/30 04:52:44;;;;;;;24.98;18.55;;;;;;;3.54;100.00;100345.79;1763710;79;20919;-66
2021/10/30 04:55:12;;;;;;;38.58;19.85;;;;;;;3.54;100.00;100339.27;1759804;81;20895;-68
2021/10/30 04:57:40;;;;;;;30.45;18.12;;;;;;;3.54;100.00;100340.98;1790711;79;21423;-68
2021/10/30 05:00:10;;;;;;;32.13;19.92;;;;;;;3.51;100.00;100333.92;1779769;79;20896;-68
2021/10/30 05:02:39;;;;;;;32.05;20.12;;;;;;;3.50;100.00;100343.88;1744260;81;21455;-68
2021/10/30 05:05:09;;;;;;;27.70;18.60;;;;;;;3.50;100.00;100338.66;1768763;79;21404;-68
2021/10/30 05:07:37;;;;;;;31.65;18.85;;;;;;;3.51;100.00;100339.14;1752006;80;21404;-68
2021/10/30 05:10:06;;;;;;;25.82;18.70;;;;;;;3.51;100.00;100339.14;1736160;81;21956;-68
2021/10/30 05:12:34;;;;;;;39.75;18.95;;;;;;;3.47;100.00;100339.43;1730473;82;20958;-69
2021/10/30 05:15:02;;;;;;;36.77;20.82;;;;;;;3.50;100.00;100346.91;1747190;81;21004;-68
2021/10/30 05:17:31;;;;;;;35.35;19.40;;;;;;;3.47;100.00;100345.95;1730701;82;20949;-69
2021/10/30 05:19:59;;;;;;;28.47;18.98;;;;;;;3.47;100.00;100345.06;1736414;81;20992;-69
2021/10/30 05:22:30;;;;;;;36.68;19.87;;;;;;;3.49;100.00;100346.02;1755818;81;21250;-69
2021/10/30 05:24:58;;;;;;;28.62;19.85;;;;;;;3.51;100.00;100361.73;1754442;81;20943;-68
2021/10/30 05:27:27;;;;;;;35.90;19.55;;;;;;;3.54;100.00;100356.22;1730910;82;21004;-69
2021/10/30 05:29:55;;;;;;;29.90;18.60;;;;;;;3.54;100.00;100360.55;1738457;81;21442;-69
2021/10/30 05:32:23;;;;;;;30.32;19.27;;;;;;;3.54;100.00;100358.84;1760614;81;20951;-68
2021/10/30 05:34:52;;;;;;;27.93;18.60;;;;;;;3.54;100.00;100364.05;1704433;80;20979;-69
2021/10/30 05:37:31;;;;;;;26.30;18.05;;;;;;;3.54;100.00;100367.08;1761006;81;21434;-69
2021/10/30 05:40:00;;;;;;;25.95;18.55;;;;;;;3.53;100.00;100371.41;1740987;82;21013;-69
2021/10/30 05:42:31;;;;;;;31.93;18.50;;;;;;;3.54;100.00;100373.19;1741430;81;20875;-68
2021/10/30 05:44:59;;;;;;;29.60;19.35;;;;;;;3.55;100.00;100367.14;1721585;81;21015;-68
2021/10/30 05:47:27;;;;;;;29.18;17.52;;;;;;;3.59;100.00;100375.56;1751727;81;21584;-68
2021/10/30 05:49:55;;;;;;;27.85;18.05;;;;;;;3.65;100.00;100377.13;1757206;81;21386;-68
2021/10/30 05:52:23;;;;;;;32.15;17.25;;;;;;;3.69;100.00;100380.33;1757182;81;21005;-68
2021/10/30 05:54:51;;;;;;;31.97;18.40;;;;;;;3.73;100.00;100374.82;1757333;81;20880;-68
2021/10/30 05:57:19;;;;;;;30.50;18.98;;;;;;;3.78;100.00;100378.12;1748747;79;21396;-69
2021/10/30 05:59:52;;;;;;;28.07;18.20;;;;;;;3.81;100.00;100372.55;1751002;81;21401;-68
2021/10/30 06:02:20;;;;;;;28.35;18.07;;;;;;;3.82;100.00;100375.64;1744862;81;20923;-68
2021/10/30 06:04:49;;;;;;;28.02;18.25;;;;;;;3.81;100.00;100382.58;1740979;81;21398;-68
2021/10/30 06:07:19;;;;;;;26.05;16.93;;;;;;;3.79;100.00;100378.60;1743314;81;20906;-69
2021/10/30 06:09:46;;;;;;;26.02;17.87;;;;;;;3.79;100.00;100372.08;1744958;81;20951;-68
2021/10/30 06:12:14;;;;;;;27.52;17.73;;;;;;;3.77;100.00;100382.84;1760481;80;21096;-68
2021/10/30 06:14:44;;;;;;;24.87;17.77;;;;;;;3.78;100.00;100388.56;1760168;81;21388;-69
2021/10/30 06:17:11;;;;;;;27.22;16.90;;;;;;;3.78;100.00;100383.73;1734914;81;21539;-69
2021/10/30 06:19:39;;;;;;;26.70;17.30;;;;;;;3.82;100.00;100395.22;1789343;79;21845;-69
2021/10/30 06:22:07;;;;;;;22.90;16.70;;;;;;;3.81;100.00;100395.63;1794144;80;20945;-69
2021/10/30 06:24:38;;;;;;;22.98;16.20;;;;;;;3.85;100.00;100399.25;1791313;79;21781;-68
2021/10/30 06:27:07;;;;;;;25.55;17.73;;;;;;;3.87;100.00;100390.66;1754119;81;20863;-68
2021/10/30 06:29:34;;;;;;;28.20;17.98;;;;;;;3.87;100.00;100391.96;1751136;80;20945;-69
2021/10/30 06:32:03;;;;;;;25.25;17.15;;;;;;;3.86;100.00;100395.41;1765353;81;20899;-68
2021/10/30 06:34:33;;;;;;;25.17;18.12;;;;;;;3.88;100.00;100395.05;1764012;80;21049;-68
2021/10/30 06:37:01;;;;;;;25.08;16.15;;;;;;;3.90;100.00;100395.11;1801257;79;21102;-68
2021/10/30 06:39:28;;;;;;;24.77;17.75;;;;;;;3.91;100.00;100399.09;1808324;79;21467;-68
2021/10/30 06:41:56;;;;;;;22.87;16.30;;;;;;;3.94;100.00;100403.53;1782768;79;21459;-67
2021/10/30 06:44:24;;;;;;;23.90;15.83;;;;;;;3.93;100.00;100403.95;1790860;79;20893;-68
2021/10/30 06:46:53;;;;;;;22.00;15.90;;;;;;;3.97;100.00;100404.55;1755438;81;21002;-69
2021/10/30 06:49:23;;;;;;;21.35;15.68;;;;;;;4.01;100.00;100410.37;1760426;81;21105;-68
2021/10/30 06:51:51;;;;;;;22.25;15.48;;;;;;;4.05;100.00;100414.00;1762325;80;20909;-68
2021/10/30 06:54:19;;;;;;;29.77;16.48;;;;;;;4.09;100.00;100413.28;1779972;80;20920;-68
2021/10/30 06:56:48;;;;;;;26.42;16.37;;;;;;;4.11;100.00;100414.23;1771001;80;20960;-68
2021/10/30 06:59:15;;;;;;;22.32;15.80;;;;;;;4.16;100.00;100412.70;1786396;80;20893;-68
2021/10/30 07:01:43;;;;;;;22.98;15.90;;;;;;;4.18;100.00;100414.95;1790768;79;21066;-69
2021/10/30 07:04:12;;;;;;;24.15;16.30;;;;;;;4.21;100.00;100408.96;1758936;80;20844;-68
2021/10/30 07:06:41;;;;;;;24.32;16.32;;;;;;;4.26;100.00;100409.65;1761330;81;21462;-67
2021/10/30 07:09:10;;;;;;;25.27;17.30;;;;;;;4.32;100.00;100410.30;1782510;80;20957;-69
2021/10/30 07:11:40;;;;;;;25.70;16.45;;;;;;;4.38;100.00;100414.45;1761868;81;21518;-68
2021/10/30 07:14:10;;;;;;;29.63;17.07;;;;;;;4.41;100.00;100415.46;1760762;81;20919;-68
2021/10/30 07:16:40;;;;;;;24.52;16.17;;;;;;;4.45;100.00;100410.36;1784747;80;21454;-69
2021/10/30 07:19:08;;;;;;;25.23;16.97;;;;;;;4.53;100.00;100418.06;1786678;80;21023;-69
2021/10/30 07:21:38;;;;;;;24.72;16.80;;;;;;;4.57;100.00;100414.73;1750739;81;20923;-69
2021/10/30 07:24:08;;;;;;;25.60;16.95;;;;;;;4.63;100.00;100414.97;1756723;81;20922;-70
2021/10/30 07:26:35;;;;;;;34.25;18.27;;;;;;;4.68;100.00;100416.03;1770703;80;21110;-69
2021/10/30 07:29:03;;;;;;;25.05;18.37;;;;;;;4.71;100.00;100409.19;1788877;80;20883;-70
2021/10/30 07:31:34;;;;;;;29.15;19.02;;;;;;;4.74;100.00;100406.73;1786361;80;21450;-70
2021/10/30 07:34:02;;;;;;;26.62;18.82;;;;;;;4.82;100.00;100410.04;1789006;80;20868;-69
2021/10/30 07:36:30;;;;;;;26.70;17.52;;;;;;;4.85;100.00;100418.89;1788520;80;21517;-69
2021/10/30 07:38:58;;;;;;;28.60;18.05;;;;;;;4.85;100.00;100417.99;1763182;80;21088;-71
2021/10/30 07:41:27;;;;;;;27.48;18.87;;;;;;;4.89;100.00;100419.89;1774251;80;20935;-69
2021/10/30 07:43:55;;;;;;;28.62;18.85;;;;;;;4.96;100.00;100408.81;1743692;82;20864;-69
2021/10/30 07:46:26;;;;;;;27.50;19.10;;;;;;;5.02;100.00;100407.31;1774073;81;20928;-69
2021/10/30 07:48:54;;;;;;;26.40;17.55;;;;;;;5.05;100.00;100403.50;1750226;81;20852;-70
2021/10/30 07:51:21;;;;;;;25.55;17.60;;;;;;;5.11;100.00;100405.44;1811149;79;21082;-70
2021/10/30 07:53:49;;;;;;;28.75;17.73;;;;;;;5.18;100.00;100402.63;1761868;81;20954;-70
2021/10/30 07:59:32;;;;;;;29.35;18.37;;;;;;;5.31;100.00;100393.98;1857144;75;22618;-71
2021/10/30 08:02:03;;;;;;;35.40;19.50;;;;;;;5.33;100.00;100397.95;1858534;76;20941;-68
2021/10/30 08:04:50;;;;;;;28.20;19.25;;;;;;;5.38;100.00;100399.89;1845174;77;21122;-72
2021/10/30 08:07:20;;;;;;;28.10;17.98;;;;;;;5.48;100.00;100399.79;1870663;76;20863;-71
2021/10/30 08:09:48;;;;;;;27.75;17.82;;;;;;;5.58;100.00;100400.98;1878927;76;21513;-71
2021/10/30 08:12:16;;;;;;;41.23;20.77;;;;;;;5.62;100.00;100405.07;1857816;77;20868;-70
2021/10/30 08:14:46;;;;;;;31.90;20.40;;;;;;;5.64;100.00;100395.95;1854147;76;21343;-70
2021/10/30 08:17:18;;;;;;;25.32;18.48;;;;;;;5.63;100.00;100396.37;1852602;77;21394;-71
2021/10/30 08:19:46;;;;;;;32.20;19.15;;;;;;;5.62;100.00;100402.87;1850432;76;21445;-72
2021/10/30 08:22:15;;;;;;;29.45;18.37;;;;;;;5.62;100.00;100403.76;1870735;76;21000;-70
2021/10/30 08:24:45;;;;;;;27.67;18.42;;;;;;;5.64;100.00;100404.70;1856379;76;21062;-69
2021/10/30 08:27:14;;;;;;;31.50;19.48;;;;;;;5.66;100.00;100406.95;1859407;76;21512;-68
2021/10/30 08:29:43;;;;;;;25.88;18.10;;;;;;;5.72;100.00;100408.03;1862112;76;21123;-69
2021/10/30 08:32:12;;;;;;;29.90;19.23;;;;;;;5.73;100.00;100406.77;1868898;75;21025;-71
2021/10/30 08:34:40;;;;;;;32.00;19.48;;;;;;;5.76;100.00;100405.56;1872504;75;21540;-69
2021/10/30 08:37:10;;;;;;;27.82;18.40;;;;;;;5.80;100.00;100408.75;1861324;76;21002;-70
2021/10/30 08:39:39;;;;;;;26.25;18.67;;;;;;;5.83;100.00;100403.61;1859506;76;20983;-70
2021/10/30 08:42:09;;;;;;;25.65;18.25;;;;;;;5.90;100.00;100404.73;1861012;75;21501;-71
2021/10/30 08:44:41;;;;;;;28.38;18.57;;;;;;;5.95;100.00;100410.59;1860759;76;20958;-70
2021/10/30 08:47:11;;;;;;;30.25;19.80;;;;;;;6.01;100.00;100402.03;1855388;76;20886;-70
2021/10/30 08:49:40;;;;;;;32.03;20.57;;;;;;;6.05;100.00;100405.64;1862224;76;20989;-73
2021/10/30 08:52:09;;;;;;;26.85;19.23;;;;;;;6.09;100.00;100410.14;1867743;76;21443;-70
2021/10/30 08:54:39;;;;;;;30.60;20.37;;;;;;;6.10;100.00;100407.98;1864585;76;22235;-71
2021/10/30 08:57:09;;;;;;;28.10;20.50;;;;;;;6.11;100.00;100405.41;1862482;76;20967;-68
2021/10/30 08:59:46;;;;;;;36.00;21.02;;;;;;;6.18;100.00;100407.84;1867098;76;20940;-69
2021/10/30 09:02:34;;;;;;;36.05;21.87;;;;;;;6.24;100.00;100406.72;1833116;76;21072;-68
2021/10/30 09:05:17;;;;;;;33.35;20.85;;;;;;;6.27;100.00;100408.12;1855250;76;20851;-70
2021/10/30 09:07:53;;;;;;;33.28;20.00;;;;;;;6.30;100.00;100408.22;1841297;76;21124;-66
2021/10/30 09:10:32;;;;;;;31.05;20.27;;;;;;;6.31;100.00;100405.65;1863682;76;20915;-69
2021/10/30 09:13:05;;;;;;;34.80;21.37;;;;;;;6.39;100.00;100409.81;1868837;75;20993;-71
2021/10/30 09:15:43;;;;;;;28.38;19.52;;;;;;;6.40;100.00;100411.59;1854654;76;20958;-70
2021/10/30 09:18:39;;;;;;;28.52;19.82;;;;;;;6.42;100.00;100408.59;1865311;76;20985;-70
2021/10/30 09:21:18;;;;;;;34.00;19.98;;;;;;;6.46;100.00;100409.58;1870584;76;21151;-69
2021/10/30 09:23:55;;;;;;;32.53;20.10;;;;;;;6.49;100.00;100407.05;1858889;76;21045;-69
2021/10/30 09:26:24;;;;;;;26.37;18.95;;;;;;;6.50;100.00;100411.03;1867409;76;21530;-70
2021/10/30 09:28:57;;;;;;;37.95;21.23;;;;;;;6.53;100.00;100406.30;1863320;76;20938;-69
2021/10/30 09:31:26;;;;;;;29.30;20.70;;;;;;;6.54;100.00;100405.45;1855984;75;20924;-69
2021/10/30 09:34:04;;;;;;;29.07;20.70;;;;;;;6.58;100.00;100402.97;1858705;76;21117;-70
2021/10/30 09:36:38;;;;;;;31.70;21.82;;;;;;;6.62;100.00;100405.26;1853256;76;21093;-70
2021/10/30 09:39:13;;;;;;;34.65;22.30;;;;;;;6.68;100.00;100400.23;1854558;76;21027;-69
2021/10/30 09:41:47;;;;;;;75.95;22.50;;;;;;;6.73;100.00;100398.62;1869297;76;21430;-71
2021/10/30 09:44:24;;;;;;;28.87;20.37;;;;;;;6.76;100.00;100398.72;1866800;76;20958;-69
2021/10/30 09:46:57;;;;;;;29.07;20.37;;;;;;;6.82;100.00;100405.88;1858416;75;21172;-67
2021/10/30 09:49:29;;;;;;;30.60;21.85;;;;;;;6.82;100.00;100402.83;1864031;76;20972;-68
2021/10/30 09:52:10;;;;;;;31.65;21.45;;;;;;;6.82;100.00;100402.83;1870124;76;20841;-67
2021/10/30 09:54:46;;;;;;;29.70;21.48;;;;;;;6.84;100.00;100401.13;1855186;76;20932;-70
2021/10/30 09:57:30;;;;;;;30.40;21.17;;;;;;;6.84;100.00;100393.69;1857334;75;20880;-73
2021/10/30 10:00:02;;;;;;;33.67;21.33;;;;;;;6.87;100.00;100386.80;1832597;77;21118;-70
2021/10/30 10:02:32;;;;;;;31.50;21.57;;;;;;;6.91;100.00;100383.41;1830156;77;21018;-66
2021/10/30 10:05:02;;;;;;;31.25;22.17;;;;;;;6.93;100.00;100389.59;1829907;77;21422;-67
2021/10/30 10:07:33;;;;;;;28.65;21.17;;;;;;;6.93;100.00;100388.70;1829535;77;20884;-67
2021/10/30 10:10:00;;;;;;;31.23;21.70;;;;;;;6.96;100.00;100388.79;1829726;77;20892;-67
2021/10/30 10:12:31;;;;;;;39.75;21.33;;;;;;;7.01;100.00;100390.23;1819665;78;21130;-71
2021/10/30 10:15:00;;;;;;;35.05;24.43;;;;;;;7.05;100.00;100388.16;1812898;77;20877;-67
2021/10/30 10:17:28;;;;;;;40.48;23.22;;;;;;;7.11;100.00;100385.31;1798934;78;21435;-65
2021/10/30 10:19:57;;;;;;;31.75;22.93;;;;;;;7.13;100.00;100376.17;1809074;77;20853;-66
2021/10/30 10:22:27;;;;;;;35.45;22.42;;;;;;;7.19;100.00;100378.95;1829359;77;21055;-67
2021/10/30 10:25:15;;;;;;;76.80;24.45;;;;;;;7.24;100.00;100374.30;1826339;77;21113;-66
2021/10/30 10:27:43;;;;;;;33.90;23.10;;;;;;;7.27;100.00;100372.17;1799141;78;20866;-67
2021/10/30 10:30:13;;;;;;;40.45;23.73;;;;;;;7.31;100.00;100376.66;1822402;77;20968;-68
2021/10/30 10:32:41;;;;;;;39.55;22.52;;;;;;;7.34;100.00;100377.16;1822856;77;21448;-68
2021/10/30 10:35:12;;;;;;;32.08;21.80;;;;;;;7.38;100.00;100368.09;1825660;77;20944;-65
2021/10/30 10:37:50;;;;;;;28.32;21.02;;;;;;;7.40;100.00;100363.77;1776878;77;21148;-69
2021/10/30 10:40:31;;;;;;;33.85;20.80;;;;;;;7.41;100.00;100362.92;1829811;77;21040;-69
2021/10/30 10:43:00;;;;;;;33.48;21.65;;;;;;;7.46;100.00;100362.61;1832119;77;20934;-68
2021/10/30 10:45:50;;;;;;;29.72;20.97;;;;;;;7.51;100.00;100360.11;1829155;77;21443;-71
2021/10/30 10:48:22;;;;;;;37.63;20.70;;;;;;;7.54;100.00;100361.49;1801604;78;20980;-68
2021/10/30 10:50:50;;;;;;;28.60;20.27;;;;;;;7.56;100.00;100353.23;1800231;78;21683;-69
2021/10/30 10:53:19;;;;;;;30.45;21.15;;;;;;;7.61;100.00;100356.00;1799380;78;20960;-68
2021/10/30 10:55:52;;;;;;;25.75;20.65;;;;;;;7.62;100.00;100357.36;1799882;78;20961;-68
2021/10/30 10:58:20;;;;;;;28.75;20.80;;;;;;;7.68;100.00;100364.50;1832582;76;20954;-69
2021/10/30 11:01:14;;;;;;;34.48;22.02;;;;;;;7.72;100.00;100350.59;1855815;76;20982;-68
2021/10/30 11:03:44;;;;;;;36.77;22.07;;;;;;;7.76;100.00;100345.45;1786438;79;21990;-67
2021/10/30 11:06:13;;;;;;;28.83;20.92;;;;;;;7.84;100.00;100351.77;1787506;79;20915;-69
2021/10/30 11:08:43;;;;;;;29.32;21.73;;;;;;;7.93;100.00;100348.90;1784447;79;20924;-68
2021/10/30 11:11:25;;;;;;;29.37;21.05;;;;;;;7.99;100.00;100345.98;1776468;79;21407;-70
2021/10/30 11:13:59;;;;;;;28.30;22.00;;;;;;;8.09;100.00;100335.29;1801790;78;20879;-69
2021/10/30 11:16:34;;;;;;;29.85;21.60;;;;;;;8.13;100.00;100344.59;1771389;79;21117;-69
2021/10/30 11:19:09;;;;;;;36.90;20.80;;;;;;;8.17;100.00;100336.35;1796246;78;20900;-69
2021/10/30 11:21:39;;;;;;;25.35;19.92;;;;;;;8.24;100.00;100341.31;1803644;78;21560;-69
2021/10/30 11:24:23;;;;;;;27.95;20.62;;;;;;;8.33;100.00;100335.86;1795201;78;20974;-70
2021/10/30 11:27:05;;;;;;;29.95;22.75;;;;;;;8.43;100.00;100339.15;1822512;77;21483;-68